Time;durP1;ratioP1;P1;durP2;ratioP2;P2;SDS_P1;SDS_P2;PMS_P1;PMS_P2;Temp;Humidity;BMP_temperature;BMP_pressure;BME280_temperature;BME280_humidity;BME280_pressure;Samples;Min_cycle;Max_cycle;Signal;HPM_P1;HPM_P2
2022/08/12 00:43:16;;;;;;;;;;;;;;;;;;5030577;28;19967;-67
2022/08/12 00:48:27;;;;;;;;;;;;;;;;;;5030652;28;19944;-67
2022/08/12 00:50:53;;;;;;;;;;;;;;;;;;5704337;22;20372;-68
2022/08/12 00:53:19;;;;;;;;;;;;;;;;;;5014729;28;20012;-65
2022/08/12 00:55:46;;;;;;;;;;;;;;;;;;5013295;28;19949;-66
2022/08/12 00:58:13;;;;;;;;;;;;;;;;;;5013314;28;19956;-67
2022/08/12 01:00:39;;;;;;;;;;;;;;;;;;5027075;28;19927;-67
2022/08/12 01:03:06;;;;;;;;;;;;;;;;;;5012300;28;20267;-67
2022/08/12 01:11:28;;;;;;;;;;;;;;;;;;4988860;28;20411;-70
2022/08/12 01:13:54;;;;;;;;;;;;;;;;;;4989181;28;19925;-70
2022/08/12 01:16:21;;;;;;;;;;;;;;;;;;4988347;28;19921;-70
2022/08/12 01:18:48;;;;;;;;;;;;;;;;;;4989180;28;19926;-70
2022/08/12 01:21:15;;;;;;;;;;;;;;;;;;4971304;28;19930;-69
2022/08/12 01:23:42;;;;;;;;;;;;;;;;;;4985096;28;19956;-69
2022/08/12 01:26:08;;;;;;;;;;;;;;;;;;4992383;28;20024;-69
2022/08/12 01:28:35;;;;;;;;;;;;;;;;;;4992249;28;19937;-70
2022/08/12 01:31:03;;;;;;;;;;;;;;;;;;4993372;28;20008;-71
2022/08/12 01:33:30;;;;;;;;;;;;;;;;;;4993084;28;19961;-70
2022/08/12 01:35:57;;;;;;;;;;;;;;;;;;4991780;28;19957;-73
2022/08/12 01:38:33;;;;;;;;;;;;;;;;;;4992374;28;19921;-74
2022/08/12 01:40:59;;;;;;;;;;;;;;;;;;4992666;28;19922;-73
2022/08/12 01:43:26;;;;;;;;;;;;;;;;;;4992209;28;19932;-68
2022/08/12 01:45:52;;;;;;;;;;;;;;;;;;4992158;28;19964;-67
2022/08/12 01:48:22;;;;;;;;;;;;;;;;;;5003829;28;19925;-68
2022/08/12 01:50:49;;;;;;;;;;;;;;;;;;5015538;28;20020;-70
2022/08/12 01:53:15;;;;;;;;;;;;;;;;;;5029375;28;19925;-72
2022/08/12 01:55:42;;;;;;;;;;;;;;;;;;5017145;28;20024;-72
2022/08/12 01:58:10;;;;;;;;;;;;;;;;;;5034147;28;20362;-72
2022/08/12 02:00:50;;;;;;;;;;;;;;;;;;5029378;28;19921;-67
2022/08/12 02:03:21;;;;;;;;;;;;;;;;;;5029340;28;19943;-73
2022/08/12 02:11:17;;;;;;;;;;;;;;;;;;5007300;28;20016;-69
2022/08/12 02:13:44;;;;;;;;;;;;;;;;;;5029500;28;19972;-70
2022/08/12 02:16:14;;;;;;;;;;;;;;;;;;5029915;28;19975;-73
2022/08/12 02:18:42;;;;;;;;;;;;;;;;;;5028708;28;20021;-71
2022/08/12 02:21:08;;;;;;;;;;;;;;;;;;5015091;28;20401;-71
2022/08/12 02:23:35;;;;;;;;;;;;;;;;;;5015407;28;19975;-72
2022/08/12 02:26:01;;;;;;;;;;;;;;;;;;5029080;28;20261;-70
2022/08/12 02:28:27;;;;;;;;;;;;;;;;;;5030342;28;20429;-70
2022/08/12 02:30:54;;;;;;;;;;;;;;;;;;5016505;28;20002;-70
2022/08/12 02:33:21;;;;;;;;;;;;;;;;;;5029042;28;19925;-70
2022/08/12 02:35:47;;;;;;;;;;;;;;;;;;5013257;28;20387;-72
2022/08/12 02:38:13;;;;;;;;;;;;;;;;;;5029065;28;19921;-71
2022/08/12 02:40:41;;;;;;;;;;;;;;;;;;5030108;28;19953;-71
2022/08/12 02:43:11;;;;;;;;;;;;;;;;;;5000278;28;19943;-77
2022/08/12 02:45:37;;;;;;;;;;;;;;;;;;5031733;28;19925;-69
2022/08/12 02:48:05;;;;;;;;;;;;;;;;;;5027873;28;19948;-66
2022/08/12 02:50:31;;;;;;;;;;;;;;;;;;5043685;28;19921;-67
2022/08/12 02:52:58;;;;;;;;;;;;;;;;;;5013136;28;19929;-67
2022/08/12 02:56:04;;;;;;;;;;;;;;;;;;5002207;28;19928;-69
2022/08/12 02:58:30;;;;;;;;;;;;;;;;;;5010935;28;19972;-67
2022/08/12 03:01:00;;;;;;;;;;;;;;;;;;5011814;28;19921;-68
2022/08/12 03:03:26;;;;;;;;;;;;;;;;;;5008765;28;19925;-69
2022/08/12 03:05:52;;;;;;;;;;;;;;;;;;5008782;28;19921;-69
2022/08/12 03:08:19;;;;;;;;;;;;;;;;;;5009056;28;19964;-69
2022/08/12 03:10:57;;;;;;;;;;;;;;;;;;4996871;28;19928;-69
2022/08/12 03:13:24;;;;;;;;;;;;;;;;;;5011104;28;19957;-68
2022/08/12 03:15:51;;;;;;;;;;;;;;;;;;5010420;28;19925;-69
2022/08/12 03:18:17;;;;;;;;;;;;;;;;;;5008200;28;19957;-71
2022/08/12 03:20:49;;;;;;;;;;;;;;;;;;5007901;28;20390;-71
2022/08/12 03:23:16;;;;;;;;;;;;;;;;;;5008092;28;20008;-70
2022/08/12 03:25:48;;;;;;;;;;;;;;;;;;5008230;28;20375;-70
2022/08/12 03:28:49;;;;;;;;;;;;;;;;;;5012651;28;19921;-70
2022/08/12 03:31:01;;;;;;;;;;;;;;;;;;5010152;28;20020;-70
2022/08/12 03:33:29;;;;;;;;;;;;;;;;;;5007904;28;19988;-70
2022/08/12 03:35:55;;;;;;;;;;;;;;;;;;5008179;28;19957;-69
2022/08/12 03:38:22;;;;;;;;;;;;;;;;;;5008272;28;20402;-70
2022/08/12 04:00:23;;;;;;;;;;;;;;;;;;5007962;28;19922;-72
2022/08/12 04:02:57;;;;;;;;;;;;;;;;;;5007995;28;19921;-69
2022/08/12 04:05:24;;;;;;;;;;;;;;;;;;5007613;28;19975;-68
2022/08/12 04:07:50;;;;;;;;;;;;;;;;;;5006571;28;19930;-65
2022/08/12 04:13:14;;;;;;;;;;;;;;;;;;4997880;28;19976;-66
2022/08/12 04:13:18;;;;;;;;;;;;;;;;;;5011769;28;19998;-69
2022/08/12 04:15:45;;;;;;;;;;;;;;;;;;5007934;28;19926;-67
2022/08/12 04:18:11;;;;;;;;;;;;;;;;;;5006552;28;19921;-71
2022/08/12 04:20:39;;;;;;;;;;;;;;;;;;5005527;28;20024;-69
2022/08/12 04:23:07;;;;;;;;;;;;;;;;;;5007203;28;19976;-70
2022/08/12 04:25:34;;;;;;;;;;;;;;;;;;5009170;28;20033;-70
2022/08/12 04:28:01;;;;;;;;;;;;;;;;;;5026654;28;20019;-69
2022/08/12 04:30:36;;;;;;;;;;;;;;;;;;5007274;28;19926;-68
2022/08/12 04:33:03;;;;;;;;;;;;;;;;;;5005939;28;20008;-66
2022/08/12 04:35:30;;;;;;;;;;;;;;;;;;5006782;28;20028;-66
2022/08/12 04:37:56;;;;;;;;;;;;;;;;;;5007539;28;20008;-66
2022/08/12 04:40:26;;;;;;;;;;;;;;;;;;5008860;28;20591;-65
2022/08/12 04:42:53;;;;;;;;;;;;;;;;;;5004532;28;20024;-68
2022/08/12 04:45:19;;;;;;;;;;;;;;;;;;5005838;28;19968;-78
2022/08/12 04:47:48;;;;;;;;;;;;;;;;;;5002998;28;19921;-72
2022/08/12 04:50:14;;;;;;;;;;;;;;;;;;4996006;28;19925;-70
2022/08/12 04:53:00;;;;;;;;;;;;;;;;;;5006826;28;20016;-69
2022/08/12 04:55:27;;;;;;;;;;;;;;;;;;5007905;28;19968;-70
2022/08/12 04:57:53;;;;;;;;;;;;;;;;;;5008598;28;20016;-72
2022/08/12 05:00:20;;;;;;;;;;;;;;;;;;5005987;28;20489;-72
2022/08/12 05:02:46;;;;;;;;;;;;;;;;;;5006117;28;19967;-69
2022/08/12 05:05:13;;;;;;;;;;;;;;;;;;5005696;28;20008;-73
2022/08/12 05:07:39;;;;;;;;;;;;;;;;;;5008373;28;19953;-71
2022/08/12 05:10:20;;;;;;;;;;;;;;;;;;4994781;28;19922;-68
2022/08/12 05:12:46;;;;;;;;;;;;;;;;;;5007262;28;20026;-69
2022/08/12 05:15:12;;;;;;;;;;;;;;;;;;5006353;28;19958;-69
2022/08/12 05:17:54;;;;;;;;;;;;;;;;;;5006190;28;20314;-69
2022/08/12 05:20:21;;;;;;;;;;;;;;;;;;5006315;28;20725;-69
2022/08/12 05:22:49;;;;;;;;;;;;;;;;;;5006375;28;19977;-68
2022/08/12 05:25:22;;;;;;;;;;;;;;;;;;5007675;28;19921;-69
2022/08/12 05:27:48;;;;;;;;;;;;;;;;;;5007855;28;19948;-67
2022/08/12 05:30:23;;;;;;;;;;;;;;;;;;5006743;28;20354;-69
2022/08/12 05:32:49;;;;;;;;;;;;;;;;;;5006675;28;19952;-69
2022/08/12 05:35:15;;;;;;;;;;;;;;;;;;5008657;28;20419;-68
2022/08/12 05:37:42;;;;;;;;;;;;;;;;;;5006656;28;20277;-68
2022/08/12 05:40:08;;;;;;;;;;;;;;;;;;4998659;28;19926;-67
2022/08/12 05:42:36;;;;;;;;;;;;;;;;;;5005522;28;20380;-68
2022/08/12 05:45:03;;;;;;;;;;;;;;;;;;5006964;28;19976;-67
2022/08/12 05:47:29;;;;;;;;;;;;;;;;;;5006717;28;20004;-67
2022/08/12 05:50:01;;;;;;;;;;;;;;;;;;5006978;28;19922;-67
2022/08/12 05:52:28;;;;;;;;;;;;;;;;;;5009365;28;19925;-67
2022/08/12 05:54:55;;;;;;;;;;;;;;;;;;4995135;28;19922;-67
2022/08/12 05:57:23;;;;;;;;;;;;;;;;;;5003113;28;19928;-66
2022/08/12 05:59:49;;;;;;;;;;;;;;;;;;5006399;28;19921;-66
2022/08/12 06:02:15;;;;;;;;;;;;;;;;;;5006369;28;20457;-66
2022/08/12 06:04:42;;;;;;;;;;;;;;;;;;5007117;28;19972;-65
2022/08/12 06:07:11;;;;;;;;;;;;;;;;;;5012840;28;19921;-66
2022/08/12 06:09:57;;;;;;;;;;;;;;;;;;4999426;28;20012;-66
2022/08/12 06:12:24;;;;;;;;;;;;;;;;;;5007030;28;20015;-66
2022/08/12 06:14:50;;;;;;;;;;;;;;;;;;5009038;28;19922;-66
2022/08/12 06:17:17;;;;;;;;;;;;;;;;;;5008706;28;19941;-66
2022/08/12 06:19:43;;;;;;;;;;;;;;;;;;5009225;28;19922;-66
2022/08/12 06:22:29;;;;;;;;;;;;;;;;;;5008671;28;19928;-65
2022/08/12 06:24:56;;;;;;;;;;;;;;;;;;5010462;28;20019;-66
2022/08/12 06:27:23;;;;;;;;;;;;;;;;;;5008354;28;19928;-66
2022/08/12 06:29:49;;;;;;;;;;;;;;;;;;5008707;28;20005;-66
2022/08/12 06:32:36;;;;;;;;;;;;;;;;;;5004199;28;20338;-66
2022/08/12 06:35:08;;;;;;;;;;;;;;;;;;5007143;28;20403;-66
2022/08/12 06:37:54;;;;;;;;;;;;;;;;;;4994518;28;19925;-66
2022/08/12 06:43:09;;;;;;;;;;;;;;;;;;4953572;28;19930;-66
2022/08/12 06:45:43;;;;;;;;;;;;;;;;;;4957015;28;19929;-66
2022/08/12 06:48:11;;;;;;;;;;;;;;;;;;4956945;28;19926;-66
2022/08/12 06:50:37;;;;;;;;;;;;;;;;;;4955983;28;20416;-66
2022/08/12 06:53:05;;;;;;;;;;;;;;;;;;4955974;28;20335;-66
2022/08/12 06:55:31;;;;;;;;;;;;;;;;;;4954515;28;20002;-66
2022/08/12 06:58:00;;;;;;;;;;;;;;;;;;4954912;28;19950;-66
2022/08/12 07:00:33;;;;;;;;;;;;;;;;;;4956115;28;19922;-66
2022/08/12 07:03:00;;;;;;;;;;;;;;;;;;4956289;28;19934;-65
2022/08/12 07:05:26;;;;;;;;;;;;;;;;;;4955963;28;20418;-66
2022/08/12 07:07:52;;;;;;;;;;;;;;;;;;4956131;28;19972;-66
2022/08/12 07:10:22;;;;;;;;;;;;;;;;;;4952964;29;19989;-66
2022/08/12 07:12:53;;;;;;;;;;;;;;;;;;4955244;28;19926;-66
2022/08/12 07:15:23;;;;;;;;;;;;;;;;;;4955783;28;19922;-66
2022/08/12 07:17:50;;;;;;;;;;;;;;;;;;4954968;28;19930;-66
2022/08/12 07:20:16;;;;;;;;;;;;;;;;;;4975174;28;20016;-66
2022/08/12 07:23:02;;;;;;;;;;;;;;;;;;5008507;28;19936;-66
2022/08/12 07:25:29;;;;;;;;;;;;;;;;;;5011219;28;19928;-66
2022/08/12 07:27:57;;;;;;;;;;;;;;;;;;5010026;28;19922;-66
2022/08/12 07:30:24;;;;;;;;;;;;;;;;;;5008518;28;19921;-66
2022/08/12 07:32:51;;;;;;;;;;;;;;;;;;5006759;28;19965;-66
2022/08/12 07:35:18;;;;;;;;;;;;;;;;;;5007676;28;19956;-66
2022/08/12 07:37:46;;;;;;;;;;;;;;;;;;5008729;28;19921;-66
2022/08/12 07:40:12;;;;;;;;;;;;;;;;;;5013073;28;20017;-66
2022/08/12 07:42:39;;;;;;;;;;;;;;;;;;5007247;28;19929;-66
2022/08/12 07:45:06;;;;;;;;;;;;;;;;;;5007799;28;20004;-65
2022/08/12 07:47:33;;;;;;;;;;;;;;;;;;5008254;28;19922;-66
2022/08/12 07:50:00;;;;;;;;;;;;;;;;;;5007899;28;19929;-65
2022/08/12 07:52:31;;;;;;;;;;;;;;;;;;5010247;28;20326;-65
2022/08/12 07:54:58;;;;;;;;;;;;;;;;;;4995065;28;19921;-66
2022/08/12 07:57:25;;;;;;;;;;;;;;;;;;5007730;28;20016;-66
2022/08/12 07:59:51;;;;;;;;;;;;;;;;;;5007580;28;19921;-66
2022/08/12 08:02:18;;;;;;;;;;;;;;;;;;5007912;28;19953;-66
2022/08/12 08:04:56;;;;;;;;;;;;;;;;;;5007806;28;20348;-66
2022/08/12 08:07:22;;;;;;;;;;;;;;;;;;5008414;28;19928;-65
2022/08/12 08:09:52;;;;;;;;;;;;;;;;;;4986092;28;19933;-66
2022/08/12 08:15:09;;;;;;;;;;;;;;;;;;5007492;28;20393;-66
2022/08/12 08:17:36;;;;;;;;;;;;;;;;;;5007306;28;20470;-66
2022/08/12 08:20:02;;;;;;;;;;;;;;;;;;5007067;28;20318;-66
2022/08/12 08:22:29;;;;;;;;;;;;;;;;;;5010508;28;19987;-66
2022/08/12 08:25:07;;;;;;;;;;;;;;;;;;5011362;28;19921;-66
2022/08/12 08:27:53;;;;;;;;;;;;;;;;;;5003707;28;19926;-66
2022/08/12 08:30:20;;;;;;;;;;;;;;;;;;5003527;28;20474;-66
2022/08/12 08:32:47;;;;;;;;;;;;;;;;;;5006966;28;20371;-66
2022/08/12 08:35:21;;;;;;;;;;;;;;;;;;5001865;28;20417;-66
2022/08/12 08:37:48;;;;;;;;;;;;;;;;;;5007675;28;19976;-66
2022/08/12 08:43:00;;;;;;;;;;;;;;;;;;5009302;28;20021;-66
2022/08/12 08:45:27;;;;;;;;;;;;;;;;;;5001739;28;19929;-66
2022/08/12 08:47:53;;;;;;;;;;;;;;;;;;5006611;28;20083;-66
2022/08/12 08:50:25;;;;;;;;;;;;;;;;;;5006809;28;20407;-65
2022/08/12 08:52:51;;;;;;;;;;;;;;;;;;5007247;28;20442;-66
2022/08/12 08:55:18;;;;;;;;;;;;;;;;;;5007628;28;19968;-66
2022/08/12 08:57:50;;;;;;;;;;;;;;;;;;5007351;28;19929;-66
2022/08/12 09:00:17;;;;;;;;;;;;;;;;;;5006500;28;19963;-66
2022/08/12 09:02:43;;;;;;;;;;;;;;;;;;5006594;28;19936;-66
2022/08/12 09:05:16;;;;;;;;;;;;;;;;;;5007126;28;19984;-66
2022/08/12 09:07:50;;;;;;;;;;;;;;;;;;5007218;28;20283;-66
2022/08/12 09:10:34;;;;;;;;;;;;;;;;;;4992309;28;20023;-66
2022/08/12 09:16:06;;;;;;;;;;;;;;;;;;5008028;28;20387;-66
2022/08/12 09:18:33;;;;;;;;;;;;;;;;;;5006451;28;20011;-66
2022/08/12 09:20:59;;;;;;;;;;;;;;;;;;5006718;28;20458;-66
2022/08/12 09:23:27;;;;;;;;;;;;;;;;;;5006661;28;19984;-66
2022/08/12 09:26:14;;;;;;;;;;;;;;;;;;4981973;28;19921;-66
2022/08/12 09:28:41;;;;;;;;;;;;;;;;;;5007805;28;20911;-66
2022/08/12 09:31:08;;;;;;;;;;;;;;;;;;5010199;28;20395;-68
2022/08/12 09:33:54;;;;;;;;;;;;;;;;;;5007305;28;20339;-68
2022/08/12 09:36:41;;;;;;;;;;;;;;;;;;5006206;28;20401;-68
2022/08/12 09:39:23;;;;;;;;;;;;;;;;;;5006346;28;19925;-68
2022/08/12 09:47:48;;;;;;;;;;;;;;;;;;5009733;28;19927;-65
2022/08/12 09:50:25;;;;;;;;;;;;;;;;;;5010321;28;20355;-66
2022/08/12 09:52:53;;;;;;;;;;;;;;;;;;5010175;28;19949;-65
2022/08/12 09:55:21;;;;;;;;;;;;;;;;;;5010938;28;19922;-66
2022/08/12 09:58:08;;;;;;;;;;;;;;;;;;5012256;28;19956;-65
2022/08/12 10:00:54;;;;;;;;;;;;;;;;;;5010717;28;19925;-66
2022/08/12 10:03:25;;;;;;;;;;;;;;;;;;5009852;28;19972;-66
2022/08/12 10:05:58;;;;;;;;;;;;;;;;;;5009751;28;19926;-66
2022/08/12 10:08:44;;;;;;;;;;;;;;;;;;5009931;28;19921;-66
2022/08/12 10:14:17;;;;;;;;;;;;;;;;;;5009884;28;20036;-66
2022/08/12 10:16:44;;;;;;;;;;;;;;;;;;5010740;28;20016;-66
2022/08/12 10:19:11;;;;;;;;;;;;;;;;;;5013736;28;19964;-66
2022/08/12 10:21:43;;;;;;;;;;;;;;;;;;5005617;28;19921;-66
2022/08/12 10:24:10;;;;;;;;;;;;;;;;;;5009431;28;19929;-66
2022/08/12 10:32:27;;;;;;;;;;;;;;;;;;5009348;28;19921;-66
2022/08/12 10:35:11;;;;;;;;;;;;;;;;;;5008896;28;20387;-66
2022/08/12 10:37:38;;;;;;;;;;;;;;;;;;5010447;28;19979;-66
2022/08/12 10:40:24;;;;;;;;;;;;;;;;;;5009845;28;19926;-66
2022/08/12 10:45:42;;;;;;;;;;;;;;;;;;5005081;28;20434;-68
2022/08/12 10:48:11;;;;;;;;;;;;;;;;;;5009215;28;19921;-66
2022/08/12 10:50:47;;;;;;;;;;;;;;;;;;5008821;28;20379;-66
2022/08/12 10:53:28;;;;;;;;;;;;;;;;;;5007891;28;19925;-66
2022/08/12 10:56:11;;;;;;;;;;;;;;;;;;5005958;28;19922;-66
2022/08/12 10:58:37;;;;;;;;;;;;;;;;;;5010354;28;19925;-65
2022/08/12 11:01:05;;;;;;;;;;;;;;;;;;5011880;28;20015;-68
2022/08/12 11:03:52;;;;;;;;;;;;;;;;;;5009834;28;19975;-68
2022/08/12 11:06:46;;;;;;;;;;;;;;;;;;5008548;28;19930;-67
2022/08/12 11:09:33;;;;;;;;;;;;;;;;;;5002618;28;19928;-68
2022/08/12 11:12:17;;;;;;;;;;;;;;;;;;5003779;28;20018;-68
2022/08/12 11:15:04;;;;;;;;;;;;;;;;;;5008343;28;20075;-66
2022/08/12 11:17:44;;;;;;;;;;;;;;;;;;5006573;28;19922;-66
2022/08/12 11:20:18;;;;;;;;;;;;;;;;;;5008994;28;19948;-66
2022/08/12 11:22:44;;;;;;;;;;;;;;;;;;5009620;28;20013;-66
2022/08/12 11:25:23;;;;;;;;;;;;;;;;;;5005815;28;19959;-65
2022/08/12 11:27:49;;;;;;;;;;;;;;;;;;5008041;28;20367;-66
2022/08/12 11:30:16;;;;;;;;;;;;;;;;;;5002951;28;20386;-66
2022/08/12 11:32:57;;;;;;;;;;;;;;;;;;5008300;28;20318;-67
2022/08/12 11:35:23;;;;;;;;;;;;;;;;;;5007911;28;20373;-68
2022/08/12 11:37:49;;;;;;;;;;;;;;;;;;5009201;28;19925;-68
2022/08/12 11:40:24;;;;;;;;;;;;;;;;;;5008976;28;19925;-68
2022/08/12 11:42:51;;;;;;;;;;;;;;;;;;5008036;28;20461;-68
2022/08/12 11:45:18;;;;;;;;;;;;;;;;;;5008489;28;19921;-68
2022/08/12 11:47:44;;;;;;;;;;;;;;;;;;5007940;28;19921;-68
2022/08/12 11:50:11;;;;;;;;;;;;;;;;;;5002896;28;19981;-68
2022/08/12 11:52:45;;;;;;;;;;;;;;;;;;5009456;28;19951;-68
2022/08/12 11:55:21;;;;;;;;;;;;;;;;;;5004532;28;19932;-68
2022/08/12 11:57:48;;;;;;;;;;;;;;;;;;5007050;28;19921;-65
2022/08/12 12:00:35;;;;;;;;;;;;;;;;;;5007460;28;19925;-65
2022/08/12 12:03:21;;;;;;;;;;;;;;;;;;5007203;28;20429;-65
2022/08/12 12:05:48;;;;;;;;;;;;;;;;;;5007618;28;19968;-66
2022/08/12 12:08:14;;;;;;;;;;;;;;;;;;5007895;28;19929;-66
2022/08/12 12:11:01;;;;;;;;;;;;;;;;;;4978601;28;19925;-68
2022/08/12 12:13:27;;;;;;;;;;;;;;;;;;5002768;28;19964;-68
2022/08/12 12:16:14;;;;;;;;;;;;;;;;;;5011669;28;19921;-67
2022/08/12 12:18:41;;;;;;;;;;;;;;;;;;5007558;28;19921;-68
2022/08/12 12:21:07;;;;;;;;;;;;;;;;;;5007441;28;19990;-68
2022/08/12 12:23:34;;;;;;;;;;;;;;;;;;5007333;28;19983;-68
2022/08/12 12:26:01;;;;;;;;;;;;;;;;;;5007325;28;20284;-68
2022/08/12 12:28:33;;;;;;;;;;;;;;;;;;5010018;28;19960;-68
2022/08/12 12:31:03;;;;;;;;;;;;;;;;;;5009736;28;19921;-68
2022/08/12 12:33:29;;;;;;;;;;;;;;;;;;5007428;28;19996;-68
2022/08/12 12:36:16;;;;;;;;;;;;;;;;;;5007111;28;20020;-68
2022/08/12 12:38:49;;;;;;;;;;;;;;;;;;5007391;28;19922;-69
2022/08/12 12:41:15;;;;;;;;;;;;;;;;;;5001370;28;20377;-68
2022/08/12 12:43:42;;;;;;;;;;;;;;;;;;5008603;28;19927;-67
2022/08/12 12:46:18;;;;;;;;;;;;;;;;;;5011882;28;19975;-69
2022/08/12 12:48:45;;;;;;;;;;;;;;;;;;5007077;28;19957;-66
2022/08/12 12:51:14;;;;;;;;;;;;;;;;;;5002519;28;20020;-66
2022/08/12 12:54:01;;;;;;;;;;;;;;;;;;5006537;28;19925;-68
2022/08/12 12:56:34;;;;;;;;;;;;;;;;;;5007041;28;19921;-68
2022/08/12 12:59:02;;;;;;;;;;;;;;;;;;5006712;28;20008;-69
2022/08/12 13:01:28;;;;;;;;;;;;;;;;;;5010627;28;19928;-68
2022/08/12 13:03:58;;;;;;;;;;;;;;;;;;5008806;28;19925;-69
2022/08/12 13:06:30;;;;;;;;;;;;;;;;;;5006721;28;20378;-66
2022/08/12 13:08:57;;;;;;;;;;;;;;;;;;5004172;28;19929;-65
2022/08/12 13:11:28;;;;;;;;;;;;;;;;;;4995507;28;19921;-67
2022/08/12 13:14:07;;;;;;;;;;;;;;;;;;5006982;28;19925;-66
2022/08/12 13:16:40;;;;;;;;;;;;;;;;;;5011419;28;19925;-66
2022/08/12 13:19:09;;;;;;;;;;;;;;;;;;5014206;28;19921;-68
2022/08/12 13:22:14;;;;;;;;;;;;;;;;;;5010767;28;19957;-68
2022/08/12 13:24:21;;;;;;;;;;;;;;;;;;5010737;28;19964;-69
2022/08/12 13:26:48;;;;;;;;;;;;;;;;;;5010570;28;19957;-68
2022/08/12 13:29:14;;;;;;;;;;;;;;;;;;5010853;28;20291;-68
2022/08/12 13:31:41;;;;;;;;;;;;;;;;;;5013425;28;19972;-68
2022/08/12 13:34:28;;;;;;;;;;;;;;;;;;5025907;28;20008;-69
2022/08/12 13:37:01;;;;;;;;;;;;;;;;;;5011774;28;20334;-68
2022/08/12 13:39:28;;;;;;;;;;;;;;;;;;5009974;28;20016;-68
2022/08/12 13:41:55;;;;;;;;;;;;;;;;;;5010149;28;20442;-70
2022/08/12 13:44:21;;;;;;;;;;;;;;;;;;5010390;28;20008;-69
2022/08/12 13:46:48;;;;;;;;;;;;;;;;;;5011901;28;19936;-69
2022/08/12 13:49:23;;;;;;;;;;;;;;;;;;5011456;28;19921;-70
2022/08/12 13:52:09;;;;;;;;;;;;;;;;;;5010828;28;19928;-69
2022/08/12 13:54:36;;;;;;;;;;;;;;;;;;5010299;28;19922;-68
2022/08/12 13:57:02;;;;;;;;;;;;;;;;;;5009485;28;20015;-68
2022/08/12 13:59:29;;;;;;;;;;;;;;;;;;5009960;28;19948;-69
2022/08/12 14:01:56;;;;;;;;;;;;;;;;;;5010781;28;19968;-69
2022/08/12 14:04:22;;;;;;;;;;;;;;;;;;5010968;28;20328;-68
2022/08/12 14:06:49;;;;;;;;;;;;;;;;;;5010647;28;20295;-68
2022/08/12 14:09:15;;;;;;;;;;;;;;;;;;5005164;28;20000;-69
2022/08/12 14:11:43;;;;;;;;;;;;;;;;;;5009787;28;19925;-68
2022/08/12 14:14:16;;;;;;;;;;;;;;;;;;5010194;28;19944;-68
2022/08/12 14:16:44;;;;;;;;;;;;;;;;;;5012331;28;20358;-68
2022/08/12 14:19:14;;;;;;;;;;;;;;;;;;5013646;28;19976;-70
2022/08/12 14:21:48;;;;;;;;;;;;;;;;;;5009904;28;19921;-69
2022/08/12 14:24:26;;;;;;;;;;;;;;;;;;5009509;28;19922;-68
2022/08/12 14:26:56;;;;;;;;;;;;;;;;;;5009227;28;20020;-69
2022/08/12 14:29:24;;;;;;;;;;;;;;;;;;5008908;28;19978;-69
2022/08/12 14:32:11;;;;;;;;;;;;;;;;;;5009806;28;19928;-68
2022/08/12 14:34:42;;;;;;;;;;;;;;;;;;5010131;28;19925;-69
2022/08/12 14:37:09;;;;;;;;;;;;;;;;;;5012399;28;20004;-69
2022/08/12 14:39:38;;;;;;;;;;;;;;;;;;5009385;28;19921;-70
2022/08/12 14:42:05;;;;;;;;;;;;;;;;;;5008975;28;19921;-69
2022/08/12 14:44:33;;;;;;;;;;;;;;;;;;5009167;28;20008;-67
2022/08/12 14:47:19;;;;;;;;;;;;;;;;;;5009813;28;20427;-67
2022/08/12 14:49:45;;;;;;;;;;;;;;;;;;5010829;28;19964;-66
2022/08/12 14:52:33;;;;;;;;;;;;;;;;;;5024728;28;19929;-67
2022/08/12 14:55:19;;;;;;;;;;;;;;;;;;5013603;28;19922;-67
2022/08/12 14:58:06;;;;;;;;;;;;;;;;;;5010424;28;19921;-67
2022/08/12 15:03:19;;;;;;;;;;;;;;;;;;5006700;28;19921;-67
2022/08/12 15:05:45;;;;;;;;;;;;;;;;;;5008530;28;20016;-67
2022/08/12 15:08:32;;;;;;;;;;;;;;;;;;5002552;28;19984;-67
2022/08/12 15:11:01;;;;;;;;;;;;;;;;;;5008914;28;19965;-66
2022/08/12 15:13:28;;;;;;;;;;;;;;;;;;5013095;28;19921;-69
2022/08/12 15:15:55;;;;;;;;;;;;;;;;;;4995914;28;19976;-66
2022/08/12 15:18:21;;;;;;;;;;;;;;;;;;5008772;28;19965;-65
2022/08/12 15:20:48;;;;;;;;;;;;;;;;;;5007265;28;19921;-66
2022/08/12 15:23:14;;;;;;;;;;;;;;;;;;5008440;28;19991;-66
2022/08/12 15:25:44;;;;;;;;;;;;;;;;;;5009377;28;19928;-66
2022/08/12 15:28:12;;;;;;;;;;;;;;;;;;5011771;28;19963;-66
2022/08/12 15:30:46;;;;;;;;;;;;;;;;;;5008166;28;19928;-66
2022/08/12 15:33:13;;;;;;;;;;;;;;;;;;5008217;28;19925;-66
2022/08/12 15:35:44;;;;;;;;;;;;;;;;;;5007975;28;20343;-65
2022/08/12 15:38:18;;;;;;;;;;;;;;;;;;5008536;28;19937;-66
2022/08/12 15:40:45;;;;;;;;;;;;;;;;;;5009696;28;20299;-66
2022/08/12 15:43:14;;;;;;;;;;;;;;;;;;5011389;28;19976;-66
2022/08/12 15:46:01;;;;;;;;;;;;;;;;;;5009170;28;19928;-66
2022/08/12 15:48:27;;;;;;;;;;;;;;;;;;5006725;28;20355;-66
2022/08/12 15:50:56;;;;;;;;;;;;;;;;;;5007857;28;19928;-66
2022/08/12 15:56:08;;;;;;;;;;;;;;;;;;5008053;28;19922;-67
2022/08/12 15:58:40;;;;;;;;;;;;;;;;;;5002019;28;20295;-66
2022/08/12 16:01:06;;;;;;;;;;;;;;;;;;5010544;28;20363;-66
2022/08/12 16:03:32;;;;;;;;;;;;;;;;;;5003185;28;19925;-67
2022/08/12 16:06:05;;;;;;;;;;;;;;;;;;5000359;28;19972;-68
2022/08/12 16:08:42;;;;;;;;;;;;;;;;;;5007385;28;19988;-67
2022/08/12 16:11:11;;;;;;;;;;;;;;;;;;5007931;28;19921;-67
2022/08/12 16:13:40;;;;;;;;;;;;;;;;;;5009921;28;19925;-65
2022/08/12 16:16:09;;;;;;;;;;;;;;;;;;5010849;28;19921;-65
2022/08/12 16:18:48;;;;;;;;;;;;;;;;;;4999255;28;20307;-63
2022/08/12 16:21:16;;;;;;;;;;;;;;;;;;5002343;28;19926;-61
2022/08/12 16:24:03;;;;;;;;;;;;;;;;;;5007382;28;19931;-62
2022/08/12 16:26:33;;;;;;;;;;;;;;;;;;5007332;28;20377;-63
2022/08/12 16:29:00;;;;;;;;;;;;;;;;;;5007314;28;19953;-63
2022/08/12 16:31:40;;;;;;;;;;;;;;;;;;5009775;28;19921;-63
2022/08/12 16:34:06;;;;;;;;;;;;;;;;;;5027429;28;20020;-62
2022/08/12 16:36:38;;;;;;;;;;;;;;;;;;5006846;28;19976;-63
2022/08/12 16:39:04;;;;;;;;;;;;;;;;;;5006929;28;20406;-63
2022/08/12 16:41:30;;;;;;;;;;;;;;;;;;5001805;28;19921;-63
2022/08/12 16:44:03;;;;;;;;;;;;;;;;;;5007190;28;20440;-64
2022/08/12 16:46:30;;;;;;;;;;;;;;;;;;5011346;28;19921;-61
2022/08/12 16:48:59;;;;;;;;;;;;;;;;;;5008001;28;19965;-62
2022/08/12 16:51:29;;;;;;;;;;;;;;;;;;5006933;28;19922;-63
2022/08/12 16:53:56;;;;;;;;;;;;;;;;;;5004592;28;20439;-62
2022/08/12 16:56:24;;;;;;;;;;;;;;;;;;4994524;28;20507;-64
2022/08/12 16:58:52;;;;;;;;;;;;;;;;;;5007939;28;20362;-64
2022/08/12 17:01:18;;;;;;;;;;;;;;;;;;5011029;28;19922;-64
2022/08/12 17:03:45;;;;;;;;;;;;;;;;;;4999723;28;19926;-64
2022/08/12 17:06:17;;;;;;;;;;;;;;;;;;5001825;28;20012;-63
2022/08/12 17:08:47;;;;;;;;;;;;;;;;;;5006596;28;19936;-63
2022/08/12 17:11:23;;;;;;;;;;;;;;;;;;5002115;28;19983;-63
2022/08/12 17:13:50;;;;;;;;;;;;;;;;;;5007761;28;20027;-64
2022/08/12 17:16:19;;;;;;;;;;;;;;;;;;5010632;28;19925;-63
2022/08/12 17:18:45;;;;;;;;;;;;;;;;;;5006727;28;19925;-62
2022/08/12 17:21:24;;;;;;;;;;;;;;;;;;5006406;28;19925;-63
2022/08/12 17:24:09;;;;;;;;;;;;;;;;;;5006708;28;19925;-63
2022/08/12 17:26:43;;;;;;;;;;;;;;;;;;5006354;28;19921;-62
2022/08/12 17:29:10;;;;;;;;;;;;;;;;;;5006786;28;20008;-63
2022/08/12 17:31:41;;;;;;;;;;;;;;;;;;5010077;28;19929;-63
2022/08/12 17:37:13;;;;;;;;;;;;;;;;;;5007932;28;20023;-63
2022/08/12 17:39:39;;;;;;;;;;;;;;;;;;5006728;28;19984;-63
2022/08/12 17:42:26;;;;;;;;;;;;;;;;;;5006346;28;19921;-63
2022/08/12 17:44:58;;;;;;;;;;;;;;;;;;5006445;28;19921;-62
2022/08/12 17:47:25;;;;;;;;;;;;;;;;;;5006350;28;19945;-62
2022/08/12 17:50:11;;;;;;;;;;;;;;;;;;5002360;28;19976;-63
2022/08/12 17:52:38;;;;;;;;;;;;;;;;;;5009351;28;20322;-63
2022/08/12 17:55:04;;;;;;;;;;;;;;;;;;5008887;28;20000;-63
2022/08/12 17:57:31;;;;;;;;;;;;;;;;;;5005995;28;19922;-63
2022/08/12 17:59:59;;;;;;;;;;;;;;;;;;5005577;28;20344;-63
2022/08/12 18:02:28;;;;;;;;;;;;;;;;;;5001688;28;19929;-64
2022/08/12 18:04:56;;;;;;;;;;;;;;;;;;5009702;28;19934;-64
2022/08/12 18:07:30;;;;;;;;;;;;;;;;;;5010873;28;19922;-64
2022/08/12 18:09:57;;;;;;;;;;;;;;;;;;5010509;28;19921;-64
2022/08/12 18:12:37;;;;;;;;;;;;;;;;;;5009993;28;19925;-65
2022/08/12 18:15:03;;;;;;;;;;;;;;;;;;5009604;28;19960;-63
2022/08/12 18:17:34;;;;;;;;;;;;;;;;;;5009813;28;19921;-64
2022/08/12 18:20:04;;;;;;;;;;;;;;;;;;5006238;28;19922;-64
2022/08/12 18:22:33;;;;;;;;;;;;;;;;;;5013903;28;20291;-64
2022/08/12 18:25:00;;;;;;;;;;;;;;;;;;5011094;28;19921;-65
2022/08/12 18:27:29;;;;;;;;;;;;;;;;;;5009343;28;19972;-65
2022/08/12 18:30:10;;;;;;;;;;;;;;;;;;5009682;28;19976;-65
2022/08/12 18:32:36;;;;;;;;;;;;;;;;;;5009486;28;19927;-65
2022/08/12 18:35:23;;;;;;;;;;;;;;;;;;5009627;28;19921;-65
2022/08/12 18:37:56;;;;;;;;;;;;;;;;;;5010224;28;19926;-66
2022/08/12 18:43:07;;;;;;;;;;;;;;;;;;5010892;28;19921;-66
2022/08/12 18:45:34;;;;;;;;;;;;;;;;;;5004455;28;19975;-66
2022/08/12 18:48:12;;;;;;;;;;;;;;;;;;5001939;28;19932;-66
2022/08/12 18:50:39;;;;;;;;;;;;;;;;;;5009066;28;20395;-65
2022/08/12 18:53:15;;;;;;;;;;;;;;;;;;5009343;28;19928;-66
2022/08/12 18:56:06;;;;;;;;;;;;;;;;;;5009560;28;20015;-65
2022/08/12 18:58:32;;;;;;;;;;;;;;;;;;5009588;28;19944;-65
2022/08/12 19:00:58;;;;;;;;;;;;;;;;;;5007909;28;20012;-65
2022/08/12 19:03:25;;;;;;;;;;;;;;;;;;5004870;28;19921;-66
2022/08/12 19:06:05;;;;;;;;;;;;;;;;;;5009261;28;20352;-66